sensor_id;sensor_type;location;lat;lon;timestamp;P1;durP1;ratioP1;P2;durP2;ratioP2
28246;SDS011;34504;53.178;22.058;2022-10-16T00:01:43;33.35;;;20.20;;
28246;SDS011;34504;53.178;22.058;2022-10-16T00:04:11;32.25;;;20.38;;
28246;SDS011;34504;53.178;22.058;2022-10-16T00:06:39;35.60;;;21.50;;
28246;SDS011;34504;53.178;22.058;2022-10-16T00:09:07;36.30;;;21.80;;
28246;SDS011;34504;53.178;22.058;2022-10-16T00:11:37;35.33;;;21.65;;
28246;SDS011;34504;53.178;22.058;2022-10-16T00:14:09;33.78;;;21.95;;
28246;SDS011;34504;53.178;22.058;2022-10-16T00:16:40;31.80;;;21.35;;
28246;SDS011;34504;53.178;22.058;2022-10-16T00:19:09;37.90;;;21.48;;
28246;SDS011;34504;53.178;22.058;2022-10-16T00:21:39;35.95;;;21.42;;
28246;SDS011;34504;53.178;22.058;2022-10-16T00:24:26;33.88;;;21.67;;
28246;SDS011;34504;53.178;22.058;2022-10-16T00:26:54;33.60;;;21.67;;
28246;SDS011;34504;53.178;22.058;2022-10-16T00:29:22;33.47;;;21.60;;
28246;SDS011;34504;53.178;22.058;2022-10-16T00:31:50;31.55;;;20.95;;
28246;SDS011;34504;53.178;22.058;2022-10-16T00:34:17;37.85;;;21.73;;
28246;SDS011;34504;53.178;22.058;2022-10-16T00:36:46;34.05;;;21.23;;
28246;SDS011;34504;53.178;22.058;2022-10-16T00:39:14;33.80;;;20.63;;
28246;SDS011;34504;53.178;22.058;2022-10-16T00:41:42;33.75;;;20.50;;
28246;SDS011;34504;53.178;22.058;2022-10-16T00:50:03;34.90;;;21.27;;
28246;SDS011;34504;53.178;22.058;2022-10-16T00:52:44;34.97;;;21.55;;
28246;SDS011;34504;53.178;22.058;2022-10-16T00:55:18;34.42;;;20.77;;
28246;SDS011;34504;53.178;22.058;2022-10-16T00:57:47;32.65;;;21.38;;
28246;SDS011;34504;53.178;22.058;2022-10-16T01:00:20;32.45;;;20.80;;
28246;SDS011;34504;53.178;22.058;2022-10-16T01:02:52;31.88;;;19.77;;
28246;SDS011;34504;53.178;22.058;2022-10-16T01:05:21;33.22;;;21.48;;
28246;SDS011;34504;53.178;22.058;2022-10-16T01:10:54;32.03;;;21.10;;
28246;SDS011;34504;53.178;22.058;2022-10-16T01:13:35;32.78;;;20.40;;
28246;SDS011;34504;53.178;22.058;2022-10-16T01:16:13;31.38;;;20.15;;
28246;SDS011;34504;53.178;22.058;2022-10-16T01:18:54;33.20;;;21.02;;
28246;SDS011;34504;53.178;22.058;2022-10-16T01:21:35;33.33;;;20.88;;
28246;SDS011;34504;53.178;22.058;2022-10-16T01:29:43;31.48;;;20.92;;
28246;SDS011;34504;53.178;22.058;2022-10-16T01:32:37;31.60;;;20.42;;
28246;SDS011;34504;53.178;22.058;2022-10-16T01:35:11;35.08;;;21.95;;
28246;SDS011;34504;53.178;22.058;2022-10-16T01:41:00;37.70;;;22.23;;
28246;SDS011;34504;53.178;22.058;2022-10-16T01:43:35;36.30;;;21.42;;
28246;SDS011;34504;53.178;22.058;2022-10-16T01:46:07;30.90;;;21.08;;
28246;SDS011;34504;53.178;22.058;2022-10-16T01:48:43;31.83;;;21.80;;
28246;SDS011;34504;53.178;22.058;2022-10-16T01:51:12;32.33;;;21.15;;
28246;SDS011;34504;53.178;22.058;2022-10-16T01:53:42;32.08;;;21.67;;
28246;SDS011;34504;53.178;22.058;2022-10-16T01:56:15;33.25;;;22.35;;
28246;SDS011;34504;53.178;22.058;2022-10-16T01:58:46;33.20;;;21.30;;
28246;SDS011;34504;53.178;22.058;2022-10-16T02:01:21;37.25;;;22.80;;
28246;SDS011;34504;53.178;22.058;2022-10-16T02:03:55;36.42;;;22.67;;
28246;SDS011;34504;53.178;22.058;2022-10-16T02:06:27;35.85;;;22.27;;
28246;SDS011;34504;53.178;22.058;2022-10-16T02:08:56;35.38;;;22.13;;
28246;SDS011;34504;53.178;22.058;2022-10-16T02:11:24;33.85;;;23.13;;
28246;SDS011;34504;53.178;22.058;2022-10-16T02:13:55;33.92;;;22.50;;
28246;SDS011;34504;53.178;22.058;2022-10-16T02:16:32;35.80;;;23.08;;
28246;SDS011;34504;53.178;22.058;2022-10-16T02:19:14;35.25;;;23.33;;
28246;SDS011;34504;53.178;22.058;2022-10-16T02:21:59;34.80;;;22.60;;
28246;SDS011;34504;53.178;22.058;2022-10-16T02:30:21;33.83;;;22.40;;
28246;SDS011;34504;53.178;22.058;2022-10-16T02:33:01;34.28;;;21.88;;
28246;SDS011;34504;53.178;22.058;2022-10-16T02:35:32;37.45;;;23.40;;
28246;SDS011;34504;53.178;22.058;2022-10-16T02:38:01;35.72;;;22.45;;
28246;SDS011;34504;53.178;22.058;2022-10-16T02:40:33;36.88;;;23.35;;
28246;SDS011;34504;53.178;22.058;2022-10-16T02:43:03;34.75;;;23.42;;
28246;SDS011;34504;53.178;22.058;2022-10-16T02:45:34;35.50;;;22.63;;
28246;SDS011;34504;53.178;22.058;2022-10-16T02:48:05;39.05;;;23.33;;
28246;SDS011;34504;53.178;22.058;2022-10-16T02:50:33;35.65;;;22.60;;
28246;SDS011;34504;53.178;22.058;2022-10-16T02:53:01;33.47;;;22.73;;
28246;SDS011;34504;53.178;22.058;2022-10-16T02:55:29;31.30;;;21.65;;
28246;SDS011;34504;53.178;22.058;2022-10-16T02:57:57;36.17;;;22.88;;
28246;SDS011;34504;53.178;22.058;2022-10-16T03:00:25;35.00;;;22.38;;
28246;SDS011;34504;53.178;22.058;2022-10-16T03:02:53;36.78;;;22.83;;
28246;SDS011;34504;53.178;22.058;2022-10-16T03:05:21;36.22;;;22.33;;
28246;SDS011;34504;53.178;22.058;2022-10-16T03:07:49;36.47;;;21.98;;
28246;SDS011;34504;53.178;22.058;2022-10-16T03:10:19;34.60;;;21.77;;
28246;SDS011;34504;53.178;22.058;2022-10-16T03:12:50;34.58;;;21.95;;
28246;SDS011;34504;53.178;22.058;2022-10-16T03:15:18;34.63;;;22.25;;
28246;SDS011;34504;53.178;22.058;2022-10-16T03:17:46;35.35;;;22.75;;
28246;SDS011;34504;53.178;22.058;2022-10-16T03:20:14;34.13;;;21.50;;
28246;SDS011;34504;53.178;22.058;2022-10-16T03:22:47;32.78;;;21.67;;
28246;SDS011;34504;53.178;22.058;2022-10-16T03:25:15;34.35;;;22.65;;
28246;SDS011;34504;53.178;22.058;2022-10-16T03:27:45;30.88;;;21.38;;
28246;SDS011;34504;53.178;22.058;2022-10-16T03:30:13;39.88;;;22.42;;
28246;SDS011;34504;53.178;22.058;2022-10-16T03:32:41;32.33;;;20.60;;
28246;SDS011;34504;53.178;22.058;2022-10-16T03:35:10;35.75;;;21.90;;
28246;SDS011;34504;53.178;22.058;2022-10-16T03:37:39;32.95;;;20.65;;
28246;SDS011;34504;53.178;22.058;2022-10-16T03:40:07;33.33;;;21.48;;
28246;SDS011;34504;53.178;22.058;2022-10-16T03:42:35;35.15;;;22.48;;
28246;SDS011;34504;53.178;22.058;2022-10-16T03:45:08;30.58;;;21.35;;
28246;SDS011;34504;53.178;22.058;2022-10-16T03:47:39;38.05;;;22.45;;
28246;SDS011;34504;53.178;22.058;2022-10-16T03:50:10;36.53;;;21.80;;
28246;SDS011;34504;53.178;22.058;2022-10-16T03:52:39;35.15;;;21.98;;
28246;SDS011;34504;53.178;22.058;2022-10-16T03:55:07;32.50;;;21.55;;
28246;SDS011;34504;53.178;22.058;2022-10-16T04:00:05;35.28;;;21.45;;
28246;SDS011;34504;53.178;22.058;2022-10-16T04:02:38;32.70;;;21.23;;
28246;SDS011;34504;53.178;22.058;2022-10-16T04:05:11;36.33;;;21.88;;
28246;SDS011;34504;53.178;22.058;2022-10-16T04:07:41;32.70;;;21.23;;
28246;SDS011;34504;53.178;22.058;2022-10-16T04:10:11;32.08;;;21.60;;
28246;SDS011;34504;53.178;22.058;2022-10-16T04:12:42;35.92;;;22.52;;
28246;SDS011;34504;53.178;22.058;2022-10-16T04:15:15;30.17;;;21.17;;
28246;SDS011;34504;53.178;22.058;2022-10-16T04:17:45;38.38;;;21.52;;
28246;SDS011;34504;53.178;22.058;2022-10-16T04:20:13;33.13;;;21.63;;
28246;SDS011;34504;53.178;22.058;2022-10-16T04:22:44;33.70;;;21.58;;
28246;SDS011;34504;53.178;22.058;2022-10-16T04:25:12;39.50;;;20.95;;
28246;SDS011;34504;53.178;22.058;2022-10-16T04:27:40;35.70;;;21.63;;
28246;SDS011;34504;53.178;22.058;2022-10-16T04:30:12;33.85;;;22.15;;
28246;SDS011;34504;53.178;22.058;2022-10-16T04:32:43;39.47;;;23.52;;
28246;SDS011;34504;53.178;22.058;2022-10-16T04:35:19;35.17;;;22.48;;
28246;SDS011;34504;53.178;22.058;2022-10-16T04:37:48;36.17;;;23.15;;
28246;SDS011;34504;53.178;22.058;2022-10-16T04:40:18;35.65;;;22.05;;
28246;SDS011;34504;53.178;22.058;2022-10-16T04:42:46;35.65;;;22.85;;
28246;SDS011;34504;53.178;22.058;2022-10-16T04:45:14;37.97;;;23.05;;
28246;SDS011;34504;53.178;22.058;2022-10-16T04:47:44;33.35;;;21.92;;
28246;SDS011;34504;53.178;22.058;2022-10-16T04:50:12;32.97;;;22.15;;
28246;SDS011;34504;53.178;22.058;2022-10-16T04:52:58;34.58;;;21.90;;
28246;SDS011;34504;53.178;22.058;2022-10-16T04:55:26;34.92;;;22.83;;
28246;SDS011;34504;53.178;22.058;2022-10-16T04:57:57;34.08;;;21.48;;
28246;SDS011;34504;53.178;22.058;2022-10-16T05:00:24;34.67;;;22.15;;
28246;SDS011;34504;53.178;22.058;2022-10-16T05:02:57;34.22;;;22.58;;
28246;SDS011;34504;53.178;22.058;2022-10-16T05:05:30;37.47;;;22.85;;
28246;SDS011;34504;53.178;22.058;2022-10-16T05:08:02;39.13;;;22.73;;
28246;SDS011;34504;53.178;22.058;2022-10-16T05:10:31;38.80;;;23.10;;
28246;SDS011;34504;53.178;22.058;2022-10-16T05:12:59;36.53;;;22.58;;
28246;SDS011;34504;53.178;22.058;2022-10-16T05:15:30;35.25;;;23.55;;
28246;SDS011;34504;53.178;22.058;2022-10-16T05:18:01;39.33;;;24.38;;
28246;SDS011;34504;53.178;22.058;2022-10-16T05:20:33;35.60;;;22.75;;
28246;SDS011;34504;53.178;22.058;2022-10-16T05:23:02;36.75;;;22.08;;
28246;SDS011;34504;53.178;22.058;2022-10-16T05:25:32;34.67;;;23.30;;
28246;SDS011;34504;53.178;22.058;2022-10-16T05:28:05;40.05;;;23.48;;
28246;SDS011;34504;53.178;22.058;2022-10-16T05:30:33;40.80;;;24.85;;
28246;SDS011;34504;53.178;22.058;2022-10-16T05:33:02;34.28;;;23.25;;
28246;SDS011;34504;53.178;22.058;2022-10-16T05:35:29;36.95;;;23.23;;
28246;SDS011;34504;53.178;22.058;2022-10-16T05:37:57;37.33;;;23.75;;
28246;SDS011;34504;53.178;22.058;2022-10-16T05:40:28;34.00;;;23.45;;
28246;SDS011;34504;53.178;22.058;2022-10-16T05:42:56;35.25;;;23.13;;
28246;SDS011;34504;53.178;22.058;2022-10-16T05:45:24;38.42;;;22.52;;
28246;SDS011;34504;53.178;22.058;2022-10-16T05:47:52;42.58;;;24.52;;
28246;SDS011;34504;53.178;22.058;2022-10-16T05:50:26;40.17;;;22.88;;
28246;SDS011;34504;53.178;22.058;2022-10-16T05:52:54;35.00;;;23.27;;
28246;SDS011;34504;53.178;22.058;2022-10-16T05:55:23;36.92;;;22.83;;
28246;SDS011;34504;53.178;22.058;2022-10-16T05:57:53;39.05;;;23.42;;
28246;SDS011;34504;53.178;22.058;2022-10-16T06:00:22;35.53;;;22.75;;
28246;SDS011;34504;53.178;22.058;2022-10-16T06:02:50;35.53;;;22.10;;
28246;SDS011;34504;53.178;22.058;2022-10-16T06:05:26;37.50;;;23.85;;
28246;SDS011;34504;53.178;22.058;2022-10-16T06:07:59;38.53;;;24.70;;
28246;SDS011;34504;53.178;22.058;2022-10-16T06:10:29;33.53;;;21.88;;
28246;SDS011;34504;53.178;22.058;2022-10-16T06:13:02;36.58;;;22.48;;
28246;SDS011;34504;53.178;22.058;2022-10-16T06:15:34;33.78;;;22.58;;
28246;SDS011;34504;53.178;22.058;2022-10-16T06:18:02;31.20;;;21.70;;
28246;SDS011;34504;53.178;22.058;2022-10-16T06:20:30;36.45;;;23.25;;
28246;SDS011;34504;53.178;22.058;2022-10-16T06:22:58;39.85;;;22.38;;
28246;SDS011;34504;53.178;22.058;2022-10-16T06:25:26;34.45;;;22.35;;
28246;SDS011;34504;53.178;22.058;2022-10-16T06:27:54;38.63;;;24.92;;
28246;SDS011;34504;53.178;22.058;2022-10-16T06:30:25;39.13;;;26.40;;
28246;SDS011;34504;53.178;22.058;2022-10-16T06:32:55;45.53;;;28.67;;
28246;SDS011;34504;53.178;22.058;2022-10-16T06:35:23;86.68;;;51.97;;
28246;SDS011;34504;53.178;22.058;2022-10-16T06:37:54;84.00;;;49.90;;
28246;SDS011;34504;53.178;22.058;2022-10-16T06:40:21;76.82;;;47.97;;
28246;SDS011;34504;53.178;22.058;2022-10-16T06:42:50;70.70;;;44.78;;
28246;SDS011;34504;53.178;22.058;2022-10-16T06:45:21;69.40;;;46.33;;
28246;SDS011;34504;53.178;22.058;2022-10-16T06:47:51;60.63;;;34.90;;
28246;SDS011;34504;53.178;22.058;2022-10-16T06:50:21;43.47;;;29.47;;
28246;SDS011;34504;53.178;22.058;2022-10-16T06:52:50;32.40;;;23.27;;
28246;SDS011;34504;53.178;22.058;2022-10-16T06:55:17;31.90;;;22.02;;
28246;SDS011;34504;53.178;22.058;2022-10-16T06:57:53;39.72;;;26.08;;
28246;SDS011;34504;53.178;22.058;2022-10-16T07:00:21;34.08;;;24.60;;
28246;SDS011;34504;53.178;22.058;2022-10-16T07:02:50;35.70;;;22.60;;
28246;SDS011;34504;53.178;22.058;2022-10-16T07:05:18;35.65;;;22.42;;
28246;SDS011;34504;53.178;22.058;2022-10-16T07:07:46;33.47;;;21.92;;
28246;SDS011;34504;53.178;22.058;2022-10-16T07:10:14;37.75;;;22.17;;
28246;SDS011;34504;53.178;22.058;2022-10-16T07:12:42;32.25;;;20.70;;
28246;SDS011;34504;53.178;22.058;2022-10-16T07:15:12;28.75;;;19.73;;
28246;SDS011;34504;53.178;22.058;2022-10-16T07:17:40;28.73;;;19.45;;
28246;SDS011;34504;53.178;22.058;2022-10-16T07:20:10;28.83;;;20.37;;
28246;SDS011;34504;53.178;22.058;2022-10-16T07:22:38;27.77;;;19.73;;
28246;SDS011;34504;53.178;22.058;2022-10-16T07:25:11;30.40;;;20.38;;
28246;SDS011;34504;53.178;22.058;2022-10-16T07:27:39;29.65;;;19.50;;
28246;SDS011;34504;53.178;22.058;2022-10-16T07:30:07;29.52;;;19.15;;
28246;SDS011;34504;53.178;22.058;2022-10-16T07:32:35;30.40;;;20.83;;
28246;SDS011;34504;53.178;22.058;2022-10-16T07:35:06;28.27;;;19.85;;
28246;SDS011;34504;53.178;22.058;2022-10-16T07:37:35;32.58;;;20.08;;
28246;SDS011;34504;53.178;22.058;2022-10-16T07:40:02;33.42;;;22.25;;
28246;SDS011;34504;53.178;22.058;2022-10-16T07:42:36;37.22;;;23.17;;
28246;SDS011;34504;53.178;22.058;2022-10-16T07:45:04;29.33;;;20.85;;
28246;SDS011;34504;53.178;22.058;2022-10-16T07:47:33;30.02;;;19.35;;
28246;SDS011;34504;53.178;22.058;2022-10-16T07:50:04;29.38;;;18.55;;
28246;SDS011;34504;53.178;22.058;2022-10-16T07:52:48;31.30;;;19.63;;
28246;SDS011;34504;53.178;22.058;2022-10-16T07:55:16;29.45;;;18.98;;
28246;SDS011;34504;53.178;22.058;2022-10-16T07:57:45;26.10;;;17.95;;
28246;SDS011;34504;53.178;22.058;2022-10-16T08:00:14;27.95;;;18.83;;
28246;SDS011;34504;53.178;22.058;2022-10-16T08:02:42;29.15;;;19.30;;
28246;SDS011;34504;53.178;22.058;2022-10-16T08:05:12;26.02;;;18.70;;
28246;SDS011;34504;53.178;22.058;2022-10-16T08:07:40;30.35;;;18.67;;
28246;SDS011;34504;53.178;22.058;2022-10-16T08:10:14;27.35;;;18.27;;
28246;SDS011;34504;53.178;22.058;2022-10-16T08:12:50;26.90;;;18.05;;
28246;SDS011;34504;53.178;22.058;2022-10-16T08:15:19;28.92;;;17.95;;
28246;SDS011;34504;53.178;22.058;2022-10-16T08:18:09;27.45;;;17.60;;
28246;SDS011;34504;53.178;22.058;2022-10-16T08:20:40;24.70;;;17.80;;
28246;SDS011;34504;53.178;22.058;2022-10-16T08:23:13;26.98;;;17.00;;
28246;SDS011;34504;53.178;22.058;2022-10-16T08:25:47;24.00;;;17.38;;
28246;SDS011;34504;53.178;22.058;2022-10-16T08:28:15;23.33;;;16.15;;
28246;SDS011;34504;53.178;22.058;2022-10-16T08:30:44;27.90;;;18.23;;
28246;SDS011;34504;53.178;22.058;2022-10-16T08:33:15;25.88;;;16.75;;
28246;SDS011;34504;53.178;22.058;2022-10-16T08:35:49;23.55;;;17.02;;
28246;SDS011;34504;53.178;22.058;2022-10-16T08:38:20;21.17;;;14.90;;
28246;SDS011;34504;53.178;22.058;2022-10-16T08:40:50;24.40;;;15.95;;
28246;SDS011;34504;53.178;22.058;2022-10-16T08:48:58;26.92;;;16.52;;
28246;SDS011;34504;53.178;22.058;2022-10-16T08:51:32;26.90;;;15.15;;
28246;SDS011;34504;53.178;22.058;2022-10-16T08:57:07;25.33;;;16.00;;
28246;SDS011;34504;53.178;22.058;2022-10-16T08:59:39;22.90;;;14.38;;
28246;SDS011;34504;53.178;22.058;2022-10-16T09:02:18;23.90;;;15.27;;
28246;SDS011;34504;53.178;22.058;2022-10-16T09:18:15;21.05;;;14.23;;
28246;SDS011;34504;53.178;22.058;2022-10-16T09:21:13;18.00;;;13.88;;
28246;SDS011;34504;53.178;22.058;2022-10-16T09:23:48;17.40;;;12.65;;
28246;SDS011;34504;53.178;22.058;2022-10-16T09:26:19;19.50;;;12.98;;
28246;SDS011;34504;53.178;22.058;2022-10-16T09:28:52;18.98;;;13.20;;
28246;SDS011;34504;53.178;22.058;2022-10-16T09:31:21;18.85;;;12.45;;
28246;SDS011;34504;53.178;22.058;2022-10-16T09:33:52;15.68;;;12.10;;
28246;SDS011;34504;53.178;22.058;2022-10-16T09:36:23;17.48;;;12.18;;
28246;SDS011;34504;53.178;22.058;2022-10-16T09:39:02;17.23;;;12.00;;
28246;SDS011;34504;53.178;22.058;2022-10-16T09:41:34;18.70;;;11.50;;
28246;SDS011;34504;53.178;22.058;2022-10-16T09:47:05;15.10;;;11.02;;
28246;SDS011;34504;53.178;22.058;2022-10-16T09:49:55;18.25;;;11.68;;
28246;SDS011;34504;53.178;22.058;2022-10-16T09:52:29;14.75;;;10.95;;
28246;SDS011;34504;53.178;22.058;2022-10-16T09:55:03;14.10;;;11.02;;
28246;SDS011;34504;53.178;22.058;2022-10-16T09:57:52;16.50;;;10.88;;
28246;SDS011;34504;53.178;22.058;2022-10-16T10:00:21;15.55;;;10.70;;
28246;SDS011;34504;53.178;22.058;2022-10-16T10:02:56;13.95;;;10.27;;
28246;SDS011;34504;53.178;22.058;2022-10-16T10:05:25;16.25;;;11.20;;
28246;SDS011;34504;53.178;22.058;2022-10-16T10:08:00;17.52;;;10.80;;
28246;SDS011;34504;53.178;22.058;2022-10-16T10:10:34;13.65;;;10.35;;
28246;SDS011;34504;53.178;22.058;2022-10-16T10:13:17;15.27;;;10.00;;
28246;SDS011;34504;53.178;22.058;2022-10-16T10:15:55;15.07;;;10.73;;
28246;SDS011;34504;53.178;22.058;2022-10-16T10:18:23;14.10;;;10.93;;
28246;SDS011;34504;53.178;22.058;2022-10-16T10:21:01;17.85;;;11.75;;
28246;SDS011;34504;53.178;22.058;2022-10-16T10:23:33;14.25;;;11.10;;
28246;SDS011;34504;53.178;22.058;2022-10-16T10:40:51;18.75;;;13.25;;
28246;SDS011;34504;53.178;22.058;2022-10-16T10:46:45;17.38;;;13.05;;
28246;SDS011;34504;53.178;22.058;2022-10-16T10:57:10;20.80;;;15.98;;
28246;SDS011;34504;53.178;22.058;2022-10-16T10:59:55;18.25;;;13.60;;
28246;SDS011;34504;53.178;22.058;2022-10-16T11:02:48;18.63;;;12.57;;
28246;SDS011;34504;53.178;22.058;2022-10-16T11:05:38;19.33;;;12.20;;
28246;SDS011;34504;53.178;22.058;2022-10-16T11:08:33;19.58;;;12.15;;
28246;SDS011;34504;53.178;22.058;2022-10-16T11:22:12;21.05;;;14.82;;
28246;SDS011;34504;53.178;22.058;2022-10-16T11:31:02;21.92;;;15.60;;
28246;SDS011;34504;53.178;22.058;2022-10-16T11:33:41;62.47;;;37.63;;
28246;SDS011;34504;53.178;22.058;2022-10-16T11:36:31;34.10;;;26.58;;
28246;SDS011;34504;53.178;22.058;2022-10-16T11:56:14;16.52;;;11.45;;
28246;SDS011;34504;53.178;22.058;2022-10-16T12:04:21;17.02;;;10.90;;
28246;SDS011;34504;53.178;22.058;2022-10-16T12:09:34;14.73;;;10.93;;
28246;SDS011;34504;53.178;22.058;2022-10-16T12:15:02;14.68;;;12.00;;
28246;SDS011;34504;53.178;22.058;2022-10-16T12:18:00;16.60;;;12.33;;
28246;SDS011;34504;53.178;22.058;2022-10-16T12:20:32;19.40;;;13.82;;
28246;SDS011;34504;53.178;22.058;2022-10-16T12:23:06;15.48;;;11.98;;
28246;SDS011;34504;53.178;22.058;2022-10-16T12:25:53;20.40;;;13.88;;
28246;SDS011;34504;53.178;22.058;2022-10-16T12:28:26;24.27;;;17.75;;
28246;SDS011;34504;53.178;22.058;2022-10-16T12:30:57;22.77;;;15.15;;
28246;SDS011;34504;53.178;22.058;2022-10-16T12:33:31;13.73;;;12.00;;
28246;SDS011;34504;53.178;22.058;2022-10-16T12:36:02;16.55;;;11.70;;
28246;SDS011;34504;53.178;22.058;2022-10-16T12:38:45;14.95;;;10.77;;
28246;SDS011;34504;53.178;22.058;2022-10-16T12:44:02;18.02;;;10.73;;
28246;SDS011;34504;53.178;22.058;2022-10-16T12:51:40;16.25;;;10.68;;
28246;SDS011;34504;53.178;22.058;2022-10-16T12:54:20;16.10;;;10.70;;
28246;SDS011;34504;53.178;22.058;2022-10-16T13:13:32;18.88;;;14.00;;
28246;SDS011;34504;53.178;22.058;2022-10-16T13:24:38;21.88;;;12.85;;
28246;SDS011;34504;53.178;22.058;2022-10-16T13:27:16;15.88;;;11.35;;
28246;SDS011;34504;53.178;22.058;2022-10-16T13:30:00;16.05;;;11.80;;
28246;SDS011;34504;53.178;22.058;2022-10-16T13:32:38;18.13;;;11.88;;
28246;SDS011;34504;53.178;22.058;2022-10-16T13:35:19;20.50;;;11.02;;
28246;SDS011;34504;53.178;22.058;2022-10-16T13:40:20;20.25;;;13.02;;
28246;SDS011;34504;53.178;22.058;2022-10-16T13:42:50;26.02;;;19.20;;
28246;SDS011;34504;53.178;22.058;2022-10-16T13:45:21;27.35;;;18.08;;
28246;SDS011;34504;53.178;22.058;2022-10-16T13:48:01;29.63;;;22.05;;
28246;SDS011;34504;53.178;22.058;2022-10-16T13:50:33;18.33;;;13.13;;
28246;SDS011;34504;53.178;22.058;2022-10-16T13:55:39;14.02;;;11.20;;
28246;SDS011;34504;53.178;22.058;2022-10-16T13:58:08;25.63;;;16.63;;
28246;SDS011;34504;53.178;22.058;2022-10-16T14:00:41;22.77;;;17.25;;
28246;SDS011;34504;53.178;22.058;2022-10-16T14:03:25;35.00;;;26.23;;
28246;SDS011;34504;53.178;22.058;2022-10-16T14:05:56;25.63;;;19.02;;
28246;SDS011;34504;53.178;22.058;2022-10-16T14:08:27;19.92;;;13.10;;
28246;SDS011;34504;53.178;22.058;2022-10-16T14:10:57;19.00;;;14.25;;
28246;SDS011;34504;53.178;22.058;2022-10-16T14:13:29;17.98;;;11.82;;
28246;SDS011;34504;53.178;22.058;2022-10-16T14:16:07;21.58;;;15.25;;
28246;SDS011;34504;53.178;22.058;2022-10-16T14:18:37;16.70;;;12.93;;
28246;SDS011;34504;53.178;22.058;2022-10-16T14:21:10;15.63;;;11.48;;
28246;SDS011;34504;53.178;22.058;2022-10-16T14:23:41;18.10;;;12.65;;
28246;SDS011;34504;53.178;22.058;2022-10-16T14:28:40;15.38;;;12.25;;
28246;SDS011;34504;53.178;22.058;2022-10-16T14:31:27;19.90;;;13.15;;
28246;SDS011;34504;53.178;22.058;2022-10-16T14:33:55;22.88;;;16.13;;
28246;SDS011;34504;53.178;22.058;2022-10-16T14:36:23;16.85;;;13.80;;
28246;SDS011;34504;53.178;22.058;2022-10-16T14:38:58;19.87;;;13.63;;
28246;SDS011;34504;53.178;22.058;2022-10-16T14:41:30;20.17;;;13.82;;
28246;SDS011;34504;53.178;22.058;2022-10-16T14:44:01;21.17;;;15.43;;
28246;SDS011;34504;53.178;22.058;2022-10-16T14:49:17;18.95;;;12.77;;
28246;SDS011;34504;53.178;22.058;2022-10-16T14:51:49;18.60;;;12.43;;
28246;SDS011;34504;53.178;22.058;2022-10-16T14:54:18;19.77;;;12.73;;
28246;SDS011;34504;53.178;22.058;2022-10-16T14:56:54;20.02;;;13.13;;
28246;SDS011;34504;53.178;22.058;2022-10-16T15:01:58;17.02;;;12.55;;
28246;SDS011;34504;53.178;22.058;2022-10-16T15:04:25;16.13;;;12.27;;
28246;SDS011;34504;53.178;22.058;2022-10-16T15:06:53;23.55;;;15.00;;
28246;SDS011;34504;53.178;22.058;2022-10-16T15:09:24;20.60;;;15.73;;
28246;SDS011;34504;53.178;22.058;2022-10-16T15:11:52;18.70;;;14.00;;
28246;SDS011;34504;53.178;22.058;2022-10-16T15:14:20;20.02;;;14.15;;
28246;SDS011;34504;53.178;22.058;2022-10-16T15:16:48;20.33;;;15.00;;
28246;SDS011;34504;53.178;22.058;2022-10-16T15:19:15;19.48;;;14.50;;
28246;SDS011;34504;53.178;22.058;2022-10-16T15:21:43;19.42;;;13.80;;
28246;SDS011;34504;53.178;22.058;2022-10-16T15:24:12;21.27;;;13.93;;
28246;SDS011;34504;53.178;22.058;2022-10-16T15:26:50;23.00;;;13.65;;
28246;SDS011;34504;53.178;22.058;2022-10-16T15:29:18;43.70;;;28.02;;
28246;SDS011;34504;53.178;22.058;2022-10-16T15:31:46;24.33;;;16.63;;
28246;SDS011;34504;53.178;22.058;2022-10-16T15:34:15;30.35;;;18.70;;
28246;SDS011;34504;53.178;22.058;2022-10-16T15:36:45;32.28;;;20.92;;
28246;SDS011;34504;53.178;22.058;2022-10-16T15:41:43;23.05;;;18.60;;
28246;SDS011;34504;53.178;22.058;2022-10-16T15:44:17;25.05;;;16.00;;
28246;SDS011;34504;53.178;22.058;2022-10-16T15:46:46;19.50;;;14.73;;
28246;SDS011;34504;53.178;22.058;2022-10-16T15:49:14;24.45;;;15.77;;
28246;SDS011;34504;53.178;22.058;2022-10-16T15:51:44;28.38;;;15.60;;
28246;SDS011;34504;53.178;22.058;2022-10-16T15:54:13;21.15;;;15.00;;
28246;SDS011;34504;53.178;22.058;2022-10-16T15:56:41;19.90;;;14.35;;
28246;SDS011;34504;53.178;22.058;2022-10-16T15:59:08;25.10;;;15.82;;
28246;SDS011;34504;53.178;22.058;2022-10-16T16:01:37;21.00;;;14.38;;
28246;SDS011;34504;53.178;22.058;2022-10-16T16:04:05;19.90;;;14.80;;
28246;SDS011;34504;53.178;22.058;2022-10-16T16:09:17;22.50;;;13.50;;
28246;SDS011;34504;53.178;22.058;2022-10-16T16:11:45;20.33;;;14.25;;
28246;SDS011;34504;53.178;22.058;2022-10-16T16:14:13;19.70;;;14.90;;
28246;SDS011;34504;53.178;22.058;2022-10-16T16:16:42;24.67;;;16.70;;
28246;SDS011;34504;53.178;22.058;2022-10-16T16:19:10;21.38;;;15.27;;
28246;SDS011;34504;53.178;22.058;2022-10-16T16:21:38;21.13;;;15.00;;
28246;SDS011;34504;53.178;22.058;2022-10-16T16:24:06;21.65;;;16.20;;
28246;SDS011;34504;53.178;22.058;2022-10-16T16:26:35;23.88;;;15.30;;
28246;SDS011;34504;53.178;22.058;2022-10-16T16:29:06;20.85;;;14.73;;
28246;SDS011;34504;53.178;22.058;2022-10-16T16:31:35;25.42;;;17.08;;
28246;SDS011;34504;53.178;22.058;2022-10-16T16:34:04;27.35;;;18.05;;
28246;SDS011;34504;53.178;22.058;2022-10-16T16:36:34;22.73;;;16.33;;
28246;SDS011;34504;53.178;22.058;2022-10-16T16:39:02;21.80;;;14.82;;
28246;SDS011;34504;53.178;22.058;2022-10-16T16:41:31;19.42;;;13.30;;
28246;SDS011;34504;53.178;22.058;2022-10-16T16:44:03;20.27;;;14.43;;
28246;SDS011;34504;53.178;22.058;2022-10-16T16:46:33;19.67;;;14.40;;
28246;SDS011;34504;53.178;22.058;2022-10-16T16:49:02;19.90;;;14.77;;
28246;SDS011;34504;53.178;22.058;2022-10-16T16:51:31;28.40;;;19.80;;
28246;SDS011;34504;53.178;22.058;2022-10-16T16:54:05;22.05;;;15.20;;
28246;SDS011;34504;53.178;22.058;2022-10-16T16:56:35;16.58;;;12.77;;
28246;SDS011;34504;53.178;22.058;2022-10-16T16:59:03;18.35;;;13.80;;
28246;SDS011;34504;53.178;22.058;2022-10-16T17:01:31;20.95;;;14.65;;
28246;SDS011;34504;53.178;22.058;2022-10-16T17:03:59;22.67;;;14.70;;
28246;SDS011;34504;53.178;22.058;2022-10-16T17:06:28;25.23;;;15.88;;
28246;SDS011;34504;53.178;22.058;2022-10-16T17:08:57;23.70;;;16.27;;
28246;SDS011;34504;53.178;22.058;2022-10-16T17:11:26;22.98;;;15.93;;
28246;SDS011;34504;53.178;22.058;2022-10-16T17:13:56;31.95;;;21.67;;
28246;SDS011;34504;53.178;22.058;2022-10-16T17:16:27;39.85;;;27.63;;
28246;SDS011;34504;53.178;22.058;2022-10-16T17:19:08;43.19;;;30.67;;
28246;SDS011;34504;53.178;22.058;2022-10-16T17:21:39;39.70;;;26.60;;
28246;SDS011;34504;53.178;22.058;2022-10-16T17:24:07;31.92;;;23.83;;
28246;SDS011;34504;53.178;22.058;2022-10-16T17:26:35;32.22;;;23.80;;
28246;SDS011;34504;53.178;22.058;2022-10-16T17:29:04;33.67;;;24.15;;